Fabre, Canada
Current Conditions -  °F | °C
As of 3:00 PM on Saturday 20 Dec 2014 (Local Time) from CYXR Reporting Station
Clear Clear  
Wind Chill: -17°   Ceiling: Unl
Heat Index: -17°   Visibility: 9mi
Dew Point: -18°   Wind: 3mph
Humidity: 92%   Direction: 50°NE
Pressure: 30.27"   Gusts: NA
Location:  47.2°N, 79.37°W
Report Text: CYXR 202000Z AUTO 05003KT 9SM CLR M17/M18 A3027 RMK SLP280
Loading
Personal Weather Stations






























Interactive Weather Map New forecast layout! Learn more

10-Day Weather Forecast

Advertisements
Track Severe Weather on mobile